createdAt,value
2019-04-19T00:01:18.826Z,59.55
2019-04-19T00:03:48.733Z,59.40
2019-04-19T00:06:31.013Z,59.93
2019-04-19T00:09:14.328Z,59.83
2019-04-19T00:11:33.478Z,59.59
2019-04-19T00:13:56.247Z,60.13
2019-04-19T00:16:25.729Z,59.67
2019-04-19T00:19:16.955Z,60.40
2019-04-19T00:21:41.733Z,60.51
2019-04-19T00:23:57.846Z,61.08
2019-04-19T00:26:25.918Z,60.61
2019-04-19T00:29:00.581Z,61.19
2019-04-19T00:31:37.560Z,61.52
2019-04-19T00:33:58.829Z,60.98
2019-04-19T00:36:25.821Z,60.94
2019-04-19T00:39:15.025Z,61.25
2019-04-19T00:41:54.570Z,61.13
2019-04-19T00:44:23.844Z,60.72
2019-04-19T00:46:55.349Z,60.94
2019-04-19T00:49:15.903Z,61.23
2019-04-19T00:51:49.111Z,61.22
2019-04-19T00:54:16.915Z,61.24
2019-04-19T00:56:48.071Z,61.54
2019-04-19T00:59:10.130Z,61.39
2019-04-19T01:01:37.532Z,60.45
2019-04-19T01:04:14.577Z,60.80
2019-04-19T01:06:43.887Z,61.31
2019-04-19T01:09:24.023Z,60.44
2019-04-19T01:11:55.579Z,60.97
2019-04-19T01:14:20.169Z,60.81
2019-04-19T01:16:54.904Z,59.73
2019-04-19T01:19:12.619Z,60.90
2019-04-19T01:21:39.143Z,61.17
2019-04-19T01:24:08.473Z,60.07
2019-04-19T01:26:43.665Z,60.08
2019-04-19T01:29:12.067Z,60.29
2019-04-19T01:31:39.649Z,60.26
2019-04-19T01:34:14.914Z,59.84
2019-04-19T01:36:43.574Z,61.28
2019-04-19T01:39:21.924Z,60.20
2019-04-19T01:41:52.437Z,61.11
2019-04-19T01:44:33.481Z,62.57
2019-04-19T01:47:15.658Z,62.02
2019-04-19T01:49:49.348Z,62.00
2019-04-19T01:52:30.454Z,61.85
2019-04-19T01:54:49.986Z,61.46
2019-04-19T01:57:09.249Z,62.90
2019-04-19T01:59:40.616Z,63.23
2019-04-19T02:02:12.613Z,62.29
2019-04-19T02:04:38.360Z,63.06
2019-04-19T02:07:12.637Z,62.74
2019-04-19T02:09:54.242Z,63.05
2019-04-19T02:12:22.178Z,64.43
2019-04-19T02:14:48.477Z,63.58
2019-04-19T02:17:12.886Z,63.98
2019-04-19T02:19:48.101Z,63.99
2019-04-19T02:22:17.356Z,64.86
2019-04-19T02:24:46.038Z,65.28
2019-04-19T02:27:13.414Z,65.38
2019-04-19T02:29:49.894Z,65.71
2019-04-19T02:32:42.717Z,65.57
2019-04-19T02:35:07.931Z,66.09
2019-04-19T02:37:53.094Z,66.45
2019-04-19T02:42:40.122Z,66.41
2019-04-19T02:50:11.407Z,67.03
2019-04-19T02:52:40.976Z,66.69
2019-04-19T02:55:10.797Z,66.69
2019-04-19T02:57:49.036Z,67.01
2019-04-19T03:05:20.062Z,68.01
2019-04-19T03:07:28.214Z,68.36
2019-04-19T03:09:58.050Z,68.36
2019-04-19T03:12:48.692Z,69.32
2019-04-19T03:15:09.776Z,68.39
2019-04-19T03:17:47.348Z,68.57
2019-04-19T03:20:16.746Z,67.96
2019-04-19T03:22:44.702Z,68.49
2019-04-19T03:25:17.202Z,68.28
2019-04-19T03:27:45.524Z,68.94
2019-04-19T03:30:12.569Z,68.73
2019-04-19T03:35:11.416Z,69.68
2019-04-19T03:37:51.264Z,69.94
2019-04-19T03:40:26.051Z,70.30
2019-04-19T03:42:58.510Z,70.30
2019-04-19T03:45:31.905Z,70.73
2019-04-19T03:48:07.607Z,70.71
2019-04-19T03:50:36.227Z,70.61
2019-04-19T03:53:00.976Z,70.94
2019-04-19T03:55:33.504Z,70.72
2019-04-19T03:57:55.110Z,70.78
2019-04-19T04:00:17.387Z,71.18
2019-04-19T04:02:48.129Z,71.18
2019-04-19T04:05:18.000Z,70.42
2019-04-19T04:07:57.851Z,70.42
2019-04-19T04:10:27.583Z,71.67
2019-04-19T04:13:15.809Z,71.39
2019-04-19T04:15:47.760Z,71.39
2019-04-19T04:18:06.767Z,72.30
2019-04-19T04:20:42.847Z,72.30
2019-04-19T04:23:10.624Z,72.29
2019-04-19T04:25:44.128Z,72.29
2019-04-19T04:28:20.297Z,72.21
2019-04-19T04:30:52.911Z,72.38
2019-04-19T04:33:21.590Z,72.76
2019-04-19T04:35:53.238Z,71.39
2019-04-19T04:38:18.039Z,71.39
2019-04-19T04:40:38.154Z,71.81
2019-04-19T04:43:20.327Z,71.81
2019-04-19T04:46:09.029Z,70.96
2019-04-19T04:48:32.481Z,70.96
2019-04-19T04:51:05.806Z,71.98
2019-04-19T04:53:21.351Z,71.10
2019-04-19T04:55:59.001Z,71.10
2019-04-19T04:58:28.798Z,70.79
2019-04-19T05:00:59.817Z,70.85
2019-04-19T05:03:42.929Z,71.42
2019-04-19T05:06:12.368Z,71.28
2019-04-19T05:08:39.774Z,72.21
2019-04-19T05:11:13.390Z,70.88
2019-04-19T05:13:46.924Z,70.95
2019-04-19T05:16:25.109Z,71.43
2019-04-19T05:18:43.593Z,70.63
2019-04-19T05:21:16.489Z,70.59
2019-04-19T05:23:47.874Z,70.56
2019-04-19T05:26:31.101Z,70.50
2019-04-19T05:28:43.707Z,69.54
2019-04-19T05:31:02.311Z,69.62
2019-04-19T05:33:42.537Z,70.19
2019-04-19T05:36:18.342Z,69.67
2019-04-19T05:39:04.873Z,68.49
2019-04-19T05:41:28.514Z,68.87
2019-04-19T05:44:27.028Z,69.36
2019-04-19T05:46:48.030Z,68.59
2019-04-19T05:49:07.754Z,68.53
2019-04-19T05:51:43.354Z,68.33
2019-04-19T05:53:56.804Z,66.55
2019-04-19T05:56:24.269Z,66.00
2019-04-19T05:59:03.360Z,65.42
2019-04-19T06:01:42.916Z,65.68
2019-04-19T06:04:11.838Z,65.98
2019-04-19T06:06:48.840Z,64.52
2019-04-19T06:08:54.379Z,64.11
2019-04-19T06:11:29.021Z,64.15
2019-04-19T06:14:12.564Z,61.73
2019-04-19T06:16:39.517Z,60.72
2019-04-19T06:19:20.487Z,60.70
2019-04-19T06:21:46.078Z,60.90
2019-04-19T06:24:24.833Z,60.18
2019-04-19T06:27:01.795Z,57.31
2019-04-19T06:29:15.041Z,58.64
2019-04-19T06:31:58.394Z,58.62
2019-04-19T06:34:23.004Z,58.38
2019-04-19T06:36:31.341Z,57.72
2019-04-19T06:39:01.410Z,55.93
2019-04-19T06:41:37.807Z,56.61
2019-04-19T06:44:10.741Z,56.49
2019-04-19T06:46:45.545Z,58.19
2019-04-19T06:49:07.463Z,57.02
2019-04-19T06:51:39.061Z,56.95
2019-04-19T06:54:06.008Z,55.06
2019-04-19T06:56:36.976Z,56.34
2019-04-19T06:59:10.538Z,55.54
2019-04-19T07:01:39.406Z,56.16
2019-04-19T07:04:04.108Z,54.92
2019-04-19T07:06:48.163Z,54.98
2019-04-19T07:09:35.598Z,54.80
2019-04-19T07:11:56.470Z,54.11
2019-04-19T07:14:12.609Z,54.50
2019-04-19T07:16:55.787Z,54.11
2019-04-19T07:19:24.468Z,52.45
2019-04-19T07:21:57.784Z,54.53
2019-04-19T07:24:33.738Z,53.77
2019-04-19T07:26:59.407Z,53.66
2019-04-19T07:29:08.435Z,53.13
2019-04-19T07:31:38.704Z,52.52
2019-04-19T07:34:17.368Z,51.65
2019-04-19T07:36:57.356Z,52.98
2019-04-19T07:39:25.593Z,49.70
2019-04-19T07:41:58.453Z,49.14
2019-04-19T07:44:30.671Z,50.19
2019-04-19T07:47:07.881Z,50.81
2019-04-19T07:49:25.326Z,49.62
2019-04-19T07:52:02.411Z,50.32
2019-04-19T07:54:29.911Z,49.09
2019-04-19T07:57:32.594Z,47.31
2019-04-19T07:59:45.348Z,47.93
2019-04-19T08:05:00.511Z,48.20
2019-04-19T08:07:31.716Z,46.82
2019-04-19T08:12:19.012Z,49.55
2019-04-19T08:29:40.783Z,43.98
2019-04-19T08:32:00.806Z,43.95
2019-04-19T08:34:31.581Z,43.85
2019-04-19T08:37:04.701Z,42.43
2019-04-19T08:39:46.111Z,42.40
2019-04-19T08:42:20.530Z,43.26
2019-04-19T08:44:45.109Z,42.61
2019-04-19T08:47:23.906Z,39.11
2019-04-19T08:49:53.685Z,40.88
2019-04-19T08:52:29.158Z,39.22
2019-04-19T08:55:17.397Z,41.56
2019-04-19T08:57:28.911Z,37.87
2019-04-19T09:00:19.010Z,39.78
2019-04-19T09:02:43.106Z,40.16
2019-04-19T09:05:15.026Z,37.64
2019-04-19T09:07:51.159Z,37.68
2019-04-19T09:10:30.587Z,37.79
2019-04-19T09:12:56.175Z,38.35
2019-04-19T09:15:18.243Z,38.87
2019-04-19T09:18:12.776Z,36.88
2019-04-19T09:20:23.381Z,34.34
2019-04-19T09:23:00.854Z,34.81
2019-04-19T09:25:32.751Z,36.18
2019-04-19T09:28:19.591Z,34.20
2019-04-19T09:30:51.338Z,34.70
2019-04-19T09:33:09.949Z,34.58
2019-04-19T09:35:40.008Z,34.52
2019-04-19T09:38:15.047Z,30.05
2019-04-19T09:40:41.421Z,30.19
2019-04-19T09:43:19.950Z,30.78
2019-04-19T09:45:34.317Z,33.32
2019-04-19T09:48:03.278Z,29.47
2019-04-19T09:50:49.217Z,30.01
2019-04-19T09:53:31.093Z,31.97
2019-04-19T09:55:57.965Z,31.85
2019-04-19T09:58:20.873Z,28.74
2019-04-19T10:00:34.921Z,27.26
2019-04-19T10:03:11.453Z,27.81
2019-04-19T10:05:34.881Z,30.65
2019-04-19T10:08:03.998Z,27.24
2019-04-19T10:10:33.321Z,30.30
2019-04-19T10:13:03.507Z,28.14
2019-04-19T10:15:34.280Z,29.30
2019-04-19T10:18:02.954Z,30.01
2019-04-19T10:20:33.693Z,26.79
2019-04-19T10:23:03.602Z,27.99
2019-04-19T10:25:35.314Z,27.50
2019-04-19T10:28:05.495Z,28.23
2019-04-19T10:30:38.800Z,27.17
2019-04-19T10:33:09.236Z,27.74
2019-04-19T10:35:37.914Z,26.72
2019-04-19T10:38:07.314Z,27.10
2019-04-19T10:40:36.105Z,26.04
2019-04-19T10:43:05.150Z,26.39
2019-04-19T10:45:34.218Z,26.24
2019-04-19T10:48:04.021Z,25.29
2019-04-19T10:50:41.908Z,27.12
2019-04-19T10:53:06.182Z,27.73
2019-04-19T10:55:40.312Z,27.42
2019-04-19T10:58:09.492Z,26.96
2019-04-19T11:00:38.233Z,27.19
2019-04-19T11:03:08.768Z,25.99
2019-04-19T11:05:38.938Z,25.67
2019-04-19T11:08:07.702Z,27.33
2019-04-19T11:10:36.317Z,25.30
2019-04-19T11:13:05.208Z,26.24
2019-04-19T11:15:34.150Z,27.14
2019-04-19T11:18:03.615Z,27.72
2019-04-19T11:20:40.278Z,26.45
2019-04-19T11:23:03.832Z,26.49
2019-04-19T11:25:33.389Z,25.41
2019-04-19T11:28:02.987Z,26.10
2019-04-19T11:30:49.316Z,25.80
2019-04-19T11:33:23.269Z,25.48
2019-04-19T11:35:57.516Z,26.78
2019-04-19T11:38:27.125Z,26.25
2019-04-19T11:40:55.841Z,25.16
2019-04-19T11:43:25.272Z,25.09
2019-04-19T11:45:54.003Z,25.05
2019-04-19T11:48:22.789Z,24.42
2019-04-19T11:50:53.990Z,25.38
2019-04-19T11:53:24.744Z,24.59
2019-04-19T11:56:00.829Z,25.27
2019-04-19T11:58:32.514Z,25.36
2019-04-19T12:01:14.193Z,23.68
2019-04-19T12:03:43.737Z,25.50
2019-04-19T12:06:12.516Z,24.97
2019-04-19T12:08:42.770Z,24.96
2019-04-19T12:11:12.650Z,23.87
2019-04-19T12:13:41.350Z,24.33
2019-04-19T12:16:10.834Z,25.04
2019-04-19T12:18:41.726Z,26.62
2019-04-19T12:21:11.268Z,25.81
2019-04-19T12:23:41.115Z,24.76
2019-04-19T12:26:09.853Z,24.92
2019-04-19T12:28:39.672Z,25.07
2019-04-19T12:31:09.439Z,25.14
2019-04-19T12:33:39.516Z,24.95
2019-04-19T12:36:08.706Z,25.70
2019-04-19T12:38:37.888Z,24.51
2019-04-19T12:41:07.893Z,24.38
2019-04-19T12:43:38.033Z,25.75
2019-04-19T12:46:07.356Z,25.46
2019-04-19T12:48:37.578Z,25.42
2019-04-19T12:51:06.211Z,25.28
2019-04-19T12:53:34.945Z,24.59
2019-04-19T12:56:04.148Z,24.83
2019-04-19T12:58:32.847Z,24.91
2019-04-19T13:01:03.860Z,24.36
2019-04-19T13:03:54.621Z,23.56
2019-04-19T13:06:35.630Z,25.60
2019-04-19T13:09:05.809Z,24.04
2019-04-19T13:11:34.876Z,24.19
2019-04-19T13:14:03.819Z,24.46
2019-04-19T13:16:32.547Z,23.68
2019-04-19T13:19:01.213Z,23.99
2019-04-19T13:21:29.931Z,24.63
2019-04-19T13:23:58.609Z,25.56
2019-04-19T13:26:27.617Z,25.32
2019-04-19T13:28:57.668Z,24.54
2019-04-19T13:31:27.127Z,24.93
2019-04-19T13:33:55.849Z,25.25
2019-04-19T13:36:26.951Z,25.01
2019-04-19T13:39:17.247Z,25.44
2019-04-19T13:41:53.163Z,25.14
2019-04-19T13:44:22.932Z,24.98
2019-04-19T13:46:54.923Z,24.55
2019-04-19T13:49:24.434Z,26.12
2019-04-19T13:51:53.065Z,25.86
2019-04-19T13:54:24.842Z,24.98
2019-04-19T13:56:53.560Z,25.73
2019-04-19T13:59:37.703Z,25.75
2019-04-19T14:01:54.503Z,25.78
2019-04-19T14:04:23.686Z,25.74
2019-04-19T14:06:56.180Z,25.65
2019-04-19T14:09:25.171Z,25.68
2019-04-19T14:11:53.801Z,25.93
2019-04-19T14:14:25.775Z,25.70
2019-04-19T14:16:55.723Z,26.11
2019-04-19T14:19:24.934Z,26.28
2019-04-19T14:21:53.535Z,25.35
2019-04-19T14:24:25.019Z,26.49
2019-04-19T14:26:56.361Z,25.48
2019-04-19T14:29:25.350Z,25.31
2019-04-19T14:31:54.602Z,24.11
2019-04-19T14:34:23.157Z,24.73
2019-04-19T14:36:51.997Z,26.62
2019-04-19T14:39:20.665Z,24.07
2019-04-19T14:41:50.114Z,23.92
2019-04-19T14:44:19.664Z,25.32
2019-04-19T14:46:48.303Z,25.13
2019-04-19T14:49:16.872Z,25.32
2019-04-19T14:51:45.859Z,25.54
2019-04-19T14:54:14.816Z,24.73
2019-04-19T14:56:43.526Z,25.28
2019-04-19T14:59:12.187Z,24.97
2019-04-19T15:01:58.967Z,24.21
2019-04-19T15:04:29.151Z,24.13
2019-04-19T15:06:57.872Z,23.65
2019-04-19T15:09:27.577Z,23.65
2019-04-19T15:11:56.478Z,23.04
2019-04-19T15:14:26.152Z,23.80
2019-04-19T15:16:54.838Z,22.14
2019-04-19T15:19:23.469Z,22.76
2019-04-19T15:21:54.360Z,22.66
2019-04-19T15:24:23.047Z,22.05
2019-04-19T15:26:54.685Z,20.76
2019-04-19T15:29:23.447Z,21.31
2019-04-19T15:31:54.485Z,21.91
2019-04-19T15:34:23.129Z,21.80
2019-04-19T15:36:51.756Z,21.42
2019-04-19T15:39:21.808Z,21.59
2019-04-19T15:41:50.680Z,22.95
2019-04-19T15:44:20.904Z,21.49
2019-04-19T15:46:51.808Z,20.76
2019-04-19T15:49:21.738Z,21.78
2019-04-19T15:51:50.517Z,22.64
2019-04-19T15:54:20.879Z,22.36
2019-04-19T15:56:52.129Z,22.38
2019-04-19T15:59:25.628Z,22.40
2019-04-19T16:01:55.927Z,22.31
2019-04-19T16:04:43.703Z,24.04
2019-04-19T16:07:20.212Z,25.18
2019-04-19T16:10:05.785Z,24.45
2019-04-19T16:12:35.690Z,24.48
2019-04-19T16:15:06.206Z,25.75
2019-04-19T16:17:34.917Z,26.10
2019-04-19T16:20:05.096Z,26.61
2019-04-19T16:22:34.113Z,26.42
2019-04-19T16:25:03.140Z,28.58
2019-04-19T16:27:31.724Z,26.70
2019-04-19T16:30:01.662Z,28.16
2019-04-19T16:32:30.834Z,28.08
2019-04-19T16:34:59.497Z,28.52
2019-04-19T16:37:28.660Z,28.77
2019-04-19T16:39:58.196Z,29.30
2019-04-19T16:42:27.162Z,29.11
2019-04-19T16:44:56.234Z,30.26
2019-04-19T16:47:24.879Z,30.43
2019-04-19T16:49:54.341Z,30.38
2019-04-19T16:52:22.984Z,31.48
2019-04-19T16:54:56.035Z,32.23
2019-04-19T16:57:29.361Z,31.62
2019-04-19T16:59:55.673Z,31.97
2019-04-19T17:02:24.915Z,30.35
2019-04-19T17:04:54.658Z,32.19
2019-04-19T17:07:24.694Z,32.93
2019-04-19T17:09:53.867Z,32.22
2019-04-19T17:12:22.536Z,30.85
2019-04-19T17:14:52.901Z,33.02
2019-04-19T17:17:26.709Z,37.75
2019-04-19T17:19:57.170Z,36.96
2019-04-19T17:22:39.251Z,35.16
2019-04-19T17:25:11.051Z,34.50
2019-04-19T17:27:41.022Z,36.41
2019-04-19T17:30:12.784Z,34.60
2019-04-19T17:32:42.044Z,35.73
2019-04-19T17:35:12.311Z,34.31
2019-04-19T17:37:42.222Z,35.45
2019-04-19T17:40:11.498Z,35.67
2019-04-19T17:42:40.531Z,37.37
2019-04-19T17:45:11.592Z,36.42
2019-04-19T17:47:42.147Z,35.78
2019-04-19T17:50:11.266Z,35.63
2019-04-19T17:52:39.907Z,37.64
2019-04-19T17:55:20.474Z,36.68
2019-04-19T17:57:39.470Z,37.50
2019-04-19T18:00:08.587Z,36.62
2019-04-19T18:02:37.250Z,36.96
2019-04-19T18:05:08.102Z,37.45
2019-04-19T18:07:40.978Z,37.32
2019-04-19T18:10:13.506Z,37.51
2019-04-19T18:12:39.178Z,37.70
2019-04-19T18:18:47.846Z,38.69
2019-04-19T18:21:34.587Z,38.83
2019-04-19T18:24:20.802Z,39.34
2019-04-19T18:27:08.409Z,39.51
2019-04-19T18:36:02.030Z,42.19
2019-04-19T18:38:26.573Z,42.29
2019-04-19T18:41:47.591Z,42.88
2019-04-19T18:47:23.212Z,40.32
2019-04-19T18:50:06.556Z,40.78
2019-04-19T18:52:48.723Z,39.67
2019-04-19T18:55:11.979Z,38.59
2019-04-19T18:57:42.970Z,38.97
2019-04-19T19:00:10.385Z,39.23
2019-04-19T19:02:39.046Z,37.64
2019-04-19T19:05:10.593Z,39.26
2019-04-19T19:07:38.880Z,38.83
2019-04-19T19:10:09.344Z,38.89
2019-04-19T19:12:40.271Z,39.24
2019-04-19T19:15:10.293Z,38.61
2019-04-19T19:17:43.743Z,39.14
2019-04-19T19:20:16.968Z,38.97
2019-04-19T19:22:58.817Z,39.29
2019-04-19T19:25:29.938Z,39.07
2019-04-19T19:27:48.387Z,39.01
2019-04-19T19:30:18.585Z,39.18
2019-04-19T19:32:51.188Z,39.88
2019-04-19T19:35:23.049Z,40.99
2019-04-19T19:37:48.644Z,38.46
2019-04-19T19:42:14.290Z,39.40
2019-04-19T19:43:07.481Z,39.08
2019-04-19T19:45:36.444Z,38.50
2019-04-19T19:48:10.452Z,39.04
2019-04-19T19:50:50.130Z,40.34
2019-04-19T19:53:16.506Z,39.45
2019-04-19T19:55:45.898Z,38.94
2019-04-19T19:58:00.624Z,39.55
2019-04-19T20:00:38.195Z,40.21
2019-04-19T20:03:06.950Z,39.87
2019-04-19T20:05:32.721Z,38.77
2019-04-19T20:07:57.491Z,37.91
2019-04-19T20:10:33.850Z,37.22
2019-04-19T20:13:00.881Z,37.25
2019-04-19T20:15:29.960Z,39.81
2019-04-19T20:17:58.564Z,39.31
2019-04-19T20:20:32.945Z,39.33
2019-04-19T20:22:58.348Z,39.69
2019-04-19T20:25:37.804Z,38.05
2019-04-19T20:27:59.357Z,39.35
2019-04-19T20:30:31.407Z,39.89
2019-04-19T20:33:02.140Z,38.80
2019-04-19T20:35:29.863Z,41.50
2019-04-19T20:38:01.275Z,39.51
2019-04-19T20:40:30.937Z,40.62
2019-04-19T20:43:21.171Z,40.51
2019-04-19T20:45:41.471Z,40.83
2019-04-19T20:48:08.010Z,41.43
2019-04-19T20:50:46.302Z,41.51
2019-04-19T20:53:13.728Z,41.41
2019-04-19T20:56:10.007Z,42.54
2019-04-19T20:58:24.025Z,42.20
2019-04-19T21:00:44.034Z,42.10
2019-04-19T21:03:15.694Z,41.20
2019-04-19T21:05:46.487Z,42.04
2019-04-19T21:08:15.929Z,42.78
2019-04-19T21:10:52.031Z,42.63
2019-04-19T21:13:17.756Z,43.46
2019-04-19T21:15:45.603Z,43.64
2019-04-19T21:18:20.688Z,43.31
2019-04-19T21:20:46.646Z,43.36
2019-04-19T21:23:21.730Z,42.67
2019-04-19T21:25:53.130Z,43.14
2019-04-19T21:28:16.756Z,43.99
2019-04-19T21:30:51.752Z,43.15
2019-04-19T21:33:18.650Z,43.94
2019-04-19T21:35:53.047Z,43.48
2019-04-19T21:38:22.667Z,43.84
2019-04-19T21:40:48.483Z,43.20
2019-04-19T21:43:23.378Z,44.22
2019-04-19T21:45:50.505Z,43.63
2019-04-19T21:48:24.776Z,44.15
2019-04-19T21:50:50.397Z,45.11
2019-04-19T21:53:18.793Z,44.88
2019-04-19T21:55:57.540Z,44.81
2019-04-19T21:58:21.107Z,46.11
2019-04-19T22:01:04.349Z,45.74
2019-04-19T22:03:30.721Z,46.84
2019-04-19T22:06:02.822Z,46.83
2019-04-19T22:08:34.753Z,46.62
2019-04-19T22:11:00.921Z,46.41
2019-04-19T22:13:36.535Z,46.71
2019-04-19T22:16:01.956Z,46.15
2019-04-19T22:18:32.250Z,47.00
2019-04-19T22:21:03.772Z,47.46
2019-04-19T22:23:31.018Z,48.58
2019-04-19T22:26:13.217Z,48.34
2019-04-19T22:28:30.005Z,49.19
2019-04-19T22:31:00.230Z,48.48
2019-04-19T22:33:30.333Z,48.94
2019-04-19T22:36:02.402Z,49.53
2019-04-19T22:38:29.648Z,50.35
2019-04-19T22:41:05.448Z,49.75
2019-04-19T22:43:28.926Z,49.79
2019-04-19T22:46:04.781Z,51.51
2019-04-19T22:48:29.318Z,51.94
2019-04-19T22:51:03.936Z,52.12
2019-04-19T22:53:34.069Z,52.35
2019-04-19T22:56:08.090Z,51.24
2019-04-19T22:58:32.107Z,51.61
2019-04-19T23:01:00.945Z,50.53
2019-04-19T23:03:35.414Z,51.64
2019-04-19T23:06:03.588Z,53.69
2019-04-19T23:08:36.708Z,52.27
2019-04-19T23:11:05.841Z,52.76
2019-04-19T23:13:33.973Z,52.96
2019-04-19T23:16:07.810Z,52.94
2019-04-19T23:18:35.780Z,52.46
2019-04-19T23:21:12.457Z,53.29
2019-04-19T23:23:36.431Z,53.09
2019-04-19T23:26:19.869Z,53.42
2019-04-19T23:28:39.252Z,53.72
2019-04-19T23:31:11.093Z,53.50
2019-04-19T23:33:36.500Z,54.66
2019-04-19T23:36:11.571Z,54.68
2019-04-19T23:38:37.122Z,56.21
2019-04-19T23:41:06.964Z,55.42
2019-04-19T23:43:38.982Z,56.32
2019-04-19T23:46:09.468Z,56.44
2019-04-19T23:48:37.325Z,56.27
2019-04-19T23:51:06.527Z,56.51
2019-04-19T23:53:39.573Z,57.45
2019-04-19T23:56:19.122Z,57.28
2019-04-19T23:58:39.600Z,57.89
